createdAt,value
2017-06-03T00:02:15.773Z,2.80
2017-06-03T00:04:42.047Z,2.83
2017-06-03T00:07:08.218Z,3.07
2017-06-03T00:09:34.377Z,2.97
2017-06-03T00:12:00.593Z,3.10
2017-06-03T00:14:32.698Z,3.07
2017-06-03T00:16:58.936Z,3.03
2017-06-03T00:19:25.129Z,3.00
2017-06-03T00:21:51.366Z,2.90
2017-06-03T00:24:17.554Z,2.77
2017-06-03T00:26:43.741Z,3.10
2017-06-03T00:40:56.158Z,2.90
2017-06-03T01:01:01.222Z,2.67
2017-06-03T01:03:27.374Z,2.80
2017-06-03T01:18:35.881Z,2.80
2017-06-03T01:21:02.048Z,3.13
2017-06-03T01:23:28.337Z,2.20
2017-06-03T01:25:54.537Z,2.80
2017-06-03T01:40:06.880Z,2.43
2017-06-03T01:42:33.299Z,2.77
2017-06-03T01:59:42.047Z,2.57
2017-06-03T02:02:08.262Z,2.70
2017-06-03T02:04:34.413Z,2.33
2017-06-03T02:07:00.617Z,2.50
2017-06-03T02:09:26.838Z,2.87
2017-06-03T02:11:53.069Z,2.20
2017-06-03T02:20:12.402Z,2.33
2017-06-03T02:22:38.706Z,2.03
2017-06-03T02:25:04.873Z,2.50
2017-06-03T02:27:31.072Z,2.43
2017-06-03T02:39:11.301Z,2.27
2017-06-03T02:41:37.453Z,2.57
2017-06-03T02:58:46.071Z,2.47
2017-06-03T03:01:12.272Z,2.20
2017-06-03T03:03:38.422Z,2.07
2017-06-03T03:06:04.585Z,2.20
2017-06-03T03:08:30.943Z,2.03
2017-06-03T03:10:57.102Z,2.10
2017-06-03T03:13:23.279Z,2.60
2017-06-03T03:18:46.126Z,2.03
2017-06-03T03:21:12.274Z,2.13
2017-06-03T03:39:11.407Z,1.93
2017-06-03T03:41:37.554Z,2.30
2017-06-03T03:58:46.581Z,2.30
2017-06-03T04:01:12.790Z,2.30
2017-06-03T04:03:39.007Z,2.17
2017-06-03T04:06:05.221Z,2.20
2017-06-03T04:08:31.441Z,2.17
2017-06-03T04:10:57.681Z,2.00
2017-06-03T04:13:23.877Z,2.10
2017-06-03T04:18:46.732Z,2.37
2017-06-03T04:21:12.878Z,1.70
2017-06-03T04:23:39.097Z,1.87
2017-06-03T04:26:05.250Z,2.40
2017-06-03T04:28:31.492Z,2.10
2017-06-03T04:39:47.324Z,2.03
2017-06-03T04:42:13.514Z,2.20
2017-06-03T04:50:38.594Z,2.90
2017-06-03T04:53:04.785Z,2.40
2017-06-03T04:55:30.981Z,1.90
2017-06-03T04:57:57.132Z,1.83
2017-06-03T05:00:23.284Z,2.27
2017-06-03T05:02:49.525Z,2.33
2017-06-03T05:05:15.684Z,1.93
2017-06-03T05:07:41.958Z,2.03
2017-06-03T05:10:08.154Z,2.43
2017-06-03T05:12:34.342Z,1.93
2017-06-03T05:20:53.605Z,1.93
2017-06-03T05:23:19.770Z,2.13
2017-06-03T05:25:46.032Z,1.90
2017-06-03T05:28:12.180Z,1.97
2017-06-03T05:36:37.255Z,1.97
2017-06-03T05:39:03.467Z,1.90
2017-06-03T05:41:29.790Z,1.80
2017-06-03T05:43:56.266Z,1.70
2017-06-03T06:01:04.789Z,15.67
2017-06-03T06:03:31.061Z,18.37
2017-06-03T06:05:57.242Z,20.27
2017-06-03T06:08:23.429Z,20.37
2017-06-03T06:10:49.649Z,19.63
2017-06-03T06:13:15.912Z,20.37
2017-06-03T06:21:35.395Z,23.47
2017-06-03T06:24:01.633Z,23.57
2017-06-03T06:26:27.933Z,24.30
2017-06-03T06:28:54.125Z,25.80
2017-06-03T06:40:39.292Z,23.70
2017-06-03T06:43:05.456Z,25.37
2017-06-03T06:45:37.740Z,26.60
2017-06-03T06:48:03.938Z,26.30
2017-06-03T06:50:30.170Z,24.73
2017-06-03T06:52:56.409Z,26.03
2017-06-03T06:55:22.730Z,26.37
2017-06-03T06:57:48.898Z,27.30
2017-06-03T07:00:15.085Z,25.40
2017-06-03T07:02:41.338Z,25.80
2017-06-03T07:05:07.572Z,27.40
2017-06-03T07:07:34.738Z,27.30
2017-06-03T07:10:01.361Z,27.27
2017-06-03T07:12:29.522Z,26.00
2017-06-03T07:20:48.667Z,23.10
2017-06-03T07:23:15.225Z,25.40
2017-06-03T07:25:41.399Z,21.63
2017-06-03T07:28:08.332Z,20.87
2017-06-03T07:30:40.446Z,20.80
2017-06-03T07:33:06.608Z,18.90
2017-06-03T07:35:32.853Z,15.10
2017-06-03T07:37:59.127Z,15.30
2017-06-03T07:40:25.330Z,15.20
2017-06-03T07:42:51.611Z,14.20
2017-06-03T08:00:00.246Z,10.00
2017-06-03T08:02:26.401Z,10.27
2017-06-03T08:04:52.639Z,8.70
2017-06-03T08:07:19.748Z,11.00
2017-06-03T08:09:45.987Z,9.40
2017-06-03T08:12:12.314Z,8.63
2017-06-03T08:14:38.469Z,7.87
2017-06-03T08:20:01.154Z,7.50
2017-06-03T08:22:27.358Z,7.50
2017-06-03T08:24:53.533Z,6.67
2017-06-03T08:27:19.753Z,7.53
2017-06-03T08:29:46.122Z,6.17
2017-06-03T08:41:01.985Z,8.33
2017-06-03T08:43:28.180Z,7.90
2017-06-03T09:00:36.923Z,5.83
2017-06-03T09:03:03.100Z,6.00
2017-06-03T09:05:29.368Z,5.83
2017-06-03T09:07:55.593Z,5.40
2017-06-03T09:10:21.841Z,6.13
2017-06-03T09:12:47.993Z,6.90
2017-06-03T09:21:07.241Z,6.00
2017-06-03T09:23:33.453Z,5.63
2017-06-03T09:25:59.748Z,5.87
2017-06-03T09:28:25.909Z,5.87
2017-06-03T09:42:40.878Z,18.70
2017-06-03T09:45:07.034Z,19.43
2017-06-03T09:47:39.030Z,19.63
2017-06-03T09:50:05.255Z,18.73
2017-06-03T09:52:31.465Z,19.40
2017-06-03T09:54:57.680Z,21.77
2017-06-03T09:57:23.886Z,20.00
2017-06-03T09:59:50.057Z,24.47
2017-06-03T10:19:55.321Z,22.20
2017-06-03T10:22:21.538Z,23.17
2017-06-03T10:24:47.694Z,23.97
2017-06-03T10:27:13.903Z,21.73
2017-06-03T10:29:40.101Z,23.20
2017-06-03T10:40:57.718Z,22.27
2017-06-03T10:43:23.930Z,21.30
2017-06-03T10:57:42.858Z,13.23
2017-06-03T11:00:09.257Z,11.30
2017-06-03T11:02:41.462Z,12.53
2017-06-03T11:05:07.721Z,12.43
2017-06-03T11:07:33.893Z,11.50
2017-06-03T11:10:00.072Z,10.67
2017-06-03T11:12:26.375Z,11.00
2017-06-03T11:14:52.565Z,11.97
2017-06-03T11:20:15.402Z,12.80
2017-06-03T11:22:41.702Z,12.53
2017-06-03T12:21:12.491Z,24.03
2017-06-03T12:23:38.843Z,23.90
2017-06-03T12:26:05.031Z,24.87
2017-06-03T12:28:31.286Z,25.70
2017-06-03T12:30:57.469Z,28.33
2017-06-03T12:33:23.758Z,26.50
2017-06-03T12:35:50.014Z,22.80
2017-06-03T12:38:17.043Z,20.70
2017-06-03T12:40:43.438Z,20.97
2017-06-03T12:43:10.007Z,20.80
2017-06-03T12:45:36.265Z,27.53
2017-06-03T12:48:02.509Z,23.57
2017-06-03T13:05:11.116Z,20.20
2017-06-03T13:07:37.330Z,23.57
2017-06-03T13:10:04.302Z,25.10
2017-06-03T13:12:30.463Z,23.03
2017-06-03T13:14:56.642Z,27.53
2017-06-03T13:17:29.001Z,24.63
2017-06-03T13:26:07.090Z,21.00
2017-06-03T13:28:33.410Z,17.37
2017-06-03T13:30:59.709Z,19.53
2017-06-03T13:33:25.933Z,16.70
2017-06-03T13:45:06.482Z,14.03
2017-06-03T13:47:32.715Z,14.93
2017-06-03T14:04:41.410Z,13.17
2017-06-03T14:07:07.578Z,13.40
2017-06-03T14:09:33.810Z,12.43
2017-06-03T14:12:00.026Z,12.53
2017-06-03T14:14:26.195Z,10.50
2017-06-03T14:16:52.462Z,10.57
2017-06-03T14:25:11.709Z,8.43
2017-06-03T14:27:38.014Z,9.93
2017-06-03T14:30:04.177Z,10.37
2017-06-03T14:32:30.360Z,11.30
2017-06-03T14:44:09.460Z,9.10
2017-06-03T14:46:35.805Z,10.77
2017-06-03T14:49:01.989Z,9.10
2017-06-03T15:03:14.294Z,9.60
2017-06-03T15:23:19.543Z,6.30
2017-06-03T15:25:45.783Z,7.83
2017-06-03T15:28:12.042Z,7.23
2017-06-03T15:30:38.222Z,6.50
2017-06-03T15:33:04.447Z,7.30
2017-06-03T15:44:21.667Z,6.47
2017-06-03T15:46:47.888Z,6.17
2017-06-03T15:49:14.143Z,7.10
2017-06-03T16:03:27.905Z,6.50
2017-06-03T16:23:35.627Z,4.03
2017-06-03T16:26:01.948Z,3.23
2017-06-03T16:28:28.153Z,4.10
2017-06-03T16:30:54.314Z,3.63
2017-06-03T16:33:20.481Z,3.13
2017-06-03T16:44:39.762Z,3.50
2017-06-03T16:47:05.978Z,3.23
2017-06-03T16:49:32.180Z,2.83
2017-06-03T17:03:44.914Z,2.80
2017-06-03T17:09:13.442Z,3.03
2017-06-03T17:11:39.646Z,2.73
2017-06-03T17:14:05.883Z,2.10
2017-06-03T17:16:32.645Z,2.53
2017-06-03T17:18:58.842Z,2.20
2017-06-03T17:24:22.855Z,2.10
2017-06-03T17:26:50.006Z,2.40
2017-06-03T17:29:16.205Z,2.10
2017-06-03T17:31:42.402Z,2.30
2017-06-03T17:34:08.683Z,2.47
2017-06-03T17:45:25.815Z,2.60
2017-06-03T17:47:52.067Z,2.67
2017-06-03T17:50:18.321Z,2.40
2017-06-03T18:04:30.680Z,2.70
2017-06-03T18:24:39.757Z,2.70
2017-06-03T18:27:06.002Z,2.40
2017-06-03T18:29:32.293Z,2.30
2017-06-03T18:31:58.481Z,2.40
2017-06-03T18:34:24.698Z,2.87
2017-06-03T18:45:41.938Z,2.67
2017-06-03T18:48:08.133Z,2.03
2017-06-03T18:50:34.354Z,2.40
2017-06-03T19:04:46.860Z,2.00
2017-06-03T19:10:15.478Z,2.23
2017-06-03T19:12:41.641Z,1.87
2017-06-03T19:15:07.837Z,1.90
2017-06-03T19:17:34.077Z,2.03
2017-06-03T19:20:00.287Z,2.23
2017-06-03T19:25:22.882Z,2.43
2017-06-03T19:27:49.044Z,2.10
2017-06-03T19:30:15.242Z,2.20
2017-06-03T19:32:41.453Z,2.57
2017-06-03T19:35:07.616Z,1.80
2017-06-03T19:46:23.218Z,2.47
2017-06-03T19:48:49.497Z,2.00
2017-06-03T19:57:14.883Z,2.20
2017-06-03T19:59:41.025Z,2.07
2017-06-03T20:02:07.258Z,2.30
2017-06-03T20:04:33.494Z,1.90
2017-06-03T20:06:59.653Z,2.20
2017-06-03T20:09:25.927Z,2.30
2017-06-03T20:11:52.094Z,2.40
2017-06-03T20:14:19.004Z,2.43
2017-06-03T20:16:45.269Z,2.27
2017-06-03T20:19:11.508Z,2.10
2017-06-03T20:27:30.727Z,2.40
2017-06-03T20:29:56.880Z,2.00
2017-06-03T20:32:23.734Z,2.67
2017-06-03T20:34:49.965Z,2.37
2017-06-03T20:43:15.361Z,2.87
2017-06-03T20:45:41.833Z,2.60
2017-06-03T20:48:08.062Z,2.70
2017-06-03T20:50:34.234Z,2.60
2017-06-03T21:07:42.829Z,2.47
2017-06-03T21:10:09.047Z,2.07
2017-06-03T21:12:35.197Z,2.00
2017-06-03T21:15:01.413Z,2.20
2017-06-03T21:17:27.606Z,2.53
2017-06-03T21:19:53.857Z,2.10
2017-06-03T21:28:12.957Z,2.33
2017-06-03T21:30:39.198Z,2.50
2017-06-03T21:33:05.391Z,2.40
2017-06-03T21:35:31.573Z,2.33
2017-06-03T21:47:12.968Z,2.07
2017-06-03T21:49:39.194Z,2.60
2017-06-03T22:06:47.630Z,2.50
2017-06-03T22:09:13.874Z,2.10
2017-06-03T22:11:40.082Z,2.00
2017-06-03T22:14:06.240Z,2.30
2017-06-03T22:16:32.463Z,1.90
2017-06-03T22:18:58.752Z,1.73
2017-06-03T22:21:24.915Z,2.07
2017-06-03T22:26:47.730Z,2.17
2017-06-03T22:29:13.905Z,2.03
2017-06-03T22:31:40.110Z,1.90
2017-06-03T22:34:06.278Z,2.03
2017-06-03T22:36:32.515Z,1.63
2017-06-03T22:47:48.357Z,2.33
2017-06-03T22:50:14.669Z,2.10
2017-06-03T23:07:25.236Z,2.23
2017-06-03T23:09:51.398Z,2.23
2017-06-03T23:12:17.606Z,2.00
2017-06-03T23:14:43.807Z,1.80
2017-06-03T23:17:10.147Z,1.97
2017-06-03T23:19:36.383Z,1.90
2017-06-03T23:27:57.267Z,1.83
2017-06-03T23:30:23.476Z,1.87
2017-06-03T23:32:49.705Z,2.03
2017-06-03T23:35:15.867Z,1.90
2017-06-03T23:46:57.964Z,2.10
2017-06-03T23:49:24.338Z,1.90
2017-06-03T23:51:50.547Z,1.70
2017-06-03T23:57:19.133Z,2.00
2017-06-03T23:59:45.369Z,1.80
